createdAt,value
2018-02-17T00:01:35.560Z,0.47
2018-02-17T00:02:35.358Z,0.43
2018-02-17T00:04:28.198Z,0.53
2018-02-17T00:05:28.110Z,0.44
2018-02-17T00:07:20.975Z,0.60
2018-02-17T00:08:20.997Z,0.66
2018-02-17T00:10:13.585Z,0.60
2018-02-17T00:11:13.493Z,0.73
2018-02-17T00:13:06.353Z,0.74
2018-02-17T00:14:06.227Z,0.63
2018-02-17T00:15:58.990Z,0.72
2018-02-17T00:16:58.893Z,0.63
2018-02-17T00:18:51.782Z,0.67
2018-02-17T00:19:51.642Z,0.67
2018-02-17T00:21:44.397Z,0.44
2018-02-17T00:22:44.303Z,0.51
2018-02-17T00:24:37.556Z,0.50
2018-02-17T00:25:37.439Z,0.45
2018-02-17T00:27:30.200Z,0.76
2018-02-17T00:28:30.117Z,0.81
2018-02-17T00:30:22.977Z,1.08
2018-02-17T00:31:22.861Z,1.17
2018-02-17T00:33:15.713Z,1.24
2018-02-17T00:34:15.612Z,1.21
2018-02-17T00:36:08.407Z,1.23
2018-02-17T00:37:08.251Z,1.12
2018-02-17T00:39:01.337Z,1.05
2018-02-17T00:40:01.210Z,0.92
2018-02-17T00:41:53.989Z,0.78
2018-02-17T00:42:53.856Z,0.76
2018-02-17T00:44:46.723Z,0.62
2018-02-17T00:45:46.609Z,0.53
2018-02-17T00:47:39.490Z,0.44
2018-02-17T00:48:39.257Z,0.50
2018-02-17T00:50:32.140Z,0.45
2018-02-17T00:51:32.012Z,0.36
2018-02-17T00:53:24.797Z,0.18
2018-02-17T00:54:24.659Z,0.15
2018-02-17T00:56:17.506Z,0.18
2018-02-17T00:57:17.413Z,0.09
2018-02-17T00:59:10.265Z,0.12
2018-02-17T01:00:10.132Z,0.09
2018-02-17T01:02:03.011Z,0.14
2018-02-17T01:03:02.924Z,0.09
2018-02-17T01:04:56.294Z,-0.09
2018-02-17T01:05:56.177Z,-0.13
2018-02-17T01:07:49.030Z,-0.04
2018-02-17T01:08:48.926Z,-0.13
2018-02-17T01:10:41.744Z,-0.13
2018-02-17T01:11:41.581Z,-0.13
2018-02-17T01:13:34.436Z,-0.21
2018-02-17T01:14:34.339Z,-0.22
2018-02-17T01:16:27.224Z,-0.20
2018-02-17T01:17:27.067Z,-0.22
2018-02-17T01:19:19.824Z,-0.35
2018-02-17T01:20:19.734Z,-0.43
2018-02-17T01:22:12.588Z,-0.39
2018-02-17T01:23:12.473Z,-0.50
2018-02-17T01:25:05.329Z,-0.46
2018-02-17T01:26:05.221Z,-0.50
2018-02-17T01:27:57.991Z,-0.27
2018-02-17T01:28:57.877Z,-0.35
2018-02-17T01:30:50.727Z,-0.34
2018-02-17T01:31:50.626Z,-0.40
2018-02-17T01:33:43.491Z,-0.34
2018-02-17T01:34:43.380Z,-0.40
2018-02-17T01:36:36.231Z,-0.50
2018-02-17T01:37:36.132Z,-0.63
2018-02-17T01:39:28.984Z,-0.61
2018-02-17T01:40:28.872Z,-0.75
2018-02-17T01:42:21.794Z,-0.84
2018-02-17T01:43:21.686Z,-0.82
2018-02-17T01:45:14.802Z,-0.85
2018-02-17T01:46:14.654Z,-0.86
2018-02-17T01:48:07.470Z,-1.00
2018-02-17T01:49:07.294Z,-0.94
2018-02-17T01:51:00.104Z,-1.05
2018-02-17T01:51:59.982Z,-1.10
2018-02-17T01:53:52.836Z,-1.05
2018-02-17T01:54:52.722Z,-1.10
2018-02-17T01:56:45.498Z,-1.07
2018-02-17T01:57:45.372Z,-1.13
2018-02-17T01:59:38.228Z,-1.13
2018-02-17T02:00:38.126Z,-1.16
2018-02-17T02:02:30.912Z,-1.28
2018-02-17T02:03:30.774Z,-1.31
2018-02-17T02:05:23.632Z,-1.18
2018-02-17T02:06:23.526Z,-1.26
2018-02-17T02:08:16.300Z,-1.41
2018-02-17T02:09:16.171Z,-1.33
2018-02-17T02:11:09.221Z,-1.40
2018-02-17T02:12:09.129Z,-1.40
2018-02-17T02:14:01.896Z,-1.44
2018-02-17T02:15:01.778Z,-1.52
2018-02-17T02:16:54.637Z,-1.41
2018-02-17T02:17:54.533Z,-1.39
2018-02-17T02:19:47.798Z,-1.31
2018-02-17T02:20:47.688Z,-1.49
2018-02-17T02:22:40.545Z,-1.37
2018-02-17T02:23:40.423Z,-1.36
2018-02-17T02:25:33.605Z,-1.51
2018-02-17T02:26:33.197Z,-1.47
2018-02-17T02:28:25.943Z,-1.49
2018-02-17T02:29:25.839Z,-1.52
2018-02-17T02:31:18.712Z,-1.54
2018-02-17T02:32:18.613Z,-1.52
2018-02-17T02:34:11.429Z,-1.55
2018-02-17T02:35:11.340Z,-1.58
2018-02-17T02:37:04.223Z,-1.54
2018-02-17T02:38:04.090Z,-1.62
2018-02-17T02:39:56.929Z,-1.58
2018-02-17T02:40:56.825Z,-1.64
2018-02-17T02:42:49.947Z,-1.62
2018-02-17T02:43:49.573Z,-1.73
2018-02-17T02:45:42.457Z,-1.67
2018-02-17T02:46:42.361Z,-1.75
2018-02-17T02:48:35.172Z,-1.76
2018-02-17T02:49:35.061Z,-1.72
2018-02-17T02:51:27.832Z,-1.70
2018-02-17T02:52:27.738Z,-1.67
2018-02-17T02:54:20.577Z,-1.72
2018-02-17T02:55:20.432Z,-1.83
2018-02-17T02:57:13.293Z,-1.69
2018-02-17T02:58:13.150Z,-1.80
2018-02-17T03:00:05.960Z,-1.78
2018-02-17T03:01:05.827Z,-1.82
2018-02-17T03:02:58.628Z,-1.76
2018-02-17T03:03:58.536Z,-1.85
2018-02-17T03:05:51.397Z,-1.73
2018-02-17T03:06:51.271Z,-1.75
2018-02-17T03:08:44.123Z,-1.76
2018-02-17T03:09:44.021Z,-1.72
2018-02-17T03:11:36.894Z,-1.72
2018-02-17T03:12:36.767Z,-1.80
2018-02-17T03:14:29.625Z,-1.79
2018-02-17T03:15:29.512Z,-1.76
2018-02-17T03:17:22.380Z,-1.80
2018-02-17T03:18:22.268Z,-1.82
2018-02-17T03:20:15.127Z,-1.88
2018-02-17T03:21:15.018Z,-1.90
2018-02-17T03:23:07.890Z,-1.85
2018-02-17T03:24:07.762Z,-1.85
2018-02-17T03:26:00.614Z,-1.85
2018-02-17T03:27:00.513Z,-1.86
2018-02-17T03:28:53.400Z,-1.85
2018-02-17T03:29:53.273Z,-1.85
2018-02-17T03:31:46.121Z,-1.90
2018-02-17T03:32:46.021Z,-1.98
2018-02-17T03:34:38.859Z,-1.93
2018-02-17T03:35:38.716Z,-1.94
2018-02-17T03:37:31.562Z,-1.96
2018-02-17T03:38:31.414Z,-1.96
2018-02-17T03:40:24.271Z,-1.93
2018-02-17T03:41:24.171Z,-2.00
2018-02-17T03:43:16.973Z,-2.01
2018-02-17T03:44:16.888Z,-2.03
2018-02-17T03:46:09.636Z,-1.96
2018-02-17T03:47:09.526Z,-2.04
2018-02-17T03:49:02.832Z,-2.06
2018-02-17T03:50:02.727Z,-2.04
2018-02-17T03:51:55.556Z,-1.98
2018-02-17T03:52:55.422Z,-1.98
2018-02-17T03:54:48.231Z,-2.03
2018-02-17T03:55:48.116Z,-2.01
2018-02-17T03:57:40.993Z,-2.00
2018-02-17T03:58:40.879Z,-1.90
2018-02-17T04:00:33.714Z,-1.86
2018-02-17T04:01:33.611Z,-1.86
2018-02-17T04:03:26.798Z,-1.98
2018-02-17T04:04:26.360Z,-1.96
2018-02-17T04:06:19.315Z,-1.98
2018-02-17T04:07:19.210Z,-2.01
2018-02-17T04:09:12.115Z,-2.04
2018-02-17T04:10:11.971Z,-2.08
2018-02-17T04:12:04.848Z,-2.01
2018-02-17T04:13:04.712Z,-2.04
2018-02-17T04:14:57.588Z,-2.11
2018-02-17T04:15:57.456Z,-2.14
2018-02-17T04:17:50.318Z,-2.08
2018-02-17T04:18:50.211Z,-2.14
2018-02-17T04:20:43.357Z,-2.16
2018-02-17T04:21:42.955Z,-2.16
2018-02-17T04:23:35.822Z,-2.14
2018-02-17T04:24:35.702Z,-2.15
2018-02-17T04:26:28.576Z,-2.22
2018-02-17T04:27:28.451Z,-2.18
2018-02-17T04:29:21.306Z,-2.22
2018-02-17T04:30:21.205Z,-2.21
2018-02-17T04:32:14.080Z,-2.22
2018-02-17T04:33:13.955Z,-2.21
2018-02-17T04:35:06.800Z,-2.33
2018-02-17T04:36:06.708Z,-2.29
2018-02-17T04:37:59.569Z,-2.37
2018-02-17T04:38:59.458Z,-2.33
2018-02-17T04:40:52.453Z,-2.29
2018-02-17T04:41:52.341Z,-2.30
2018-02-17T04:43:45.189Z,-2.27
2018-02-17T04:44:45.069Z,-2.35
2018-02-17T04:46:38.412Z,-2.45
2018-02-17T04:47:38.336Z,-2.38
2018-02-17T04:49:31.353Z,-2.46
2018-02-17T04:50:31.077Z,-2.45
2018-02-17T04:52:23.917Z,-2.51
2018-02-17T04:53:23.809Z,-2.55
2018-02-17T04:55:16.689Z,-2.45
2018-02-17T04:56:16.555Z,-2.49
2018-02-17T04:58:09.441Z,-2.63
2018-02-17T04:59:09.317Z,-2.55
2018-02-17T05:01:02.161Z,-2.55
2018-02-17T05:02:02.058Z,-2.56
2018-02-17T05:03:55.215Z,-2.64
2018-02-17T05:04:54.805Z,-2.64
2018-02-17T05:06:47.667Z,-2.61
2018-02-17T05:07:47.552Z,-2.64
2018-02-17T05:09:40.420Z,-2.64
2018-02-17T05:10:40.298Z,-2.58
2018-02-17T05:12:33.262Z,-2.63
2018-02-17T05:13:33.153Z,-2.64
2018-02-17T05:15:26.022Z,-2.64
2018-02-17T05:16:25.903Z,-2.63
2018-02-17T05:18:18.757Z,-2.63
2018-02-17T05:19:18.656Z,-2.63
2018-02-17T05:21:11.522Z,-2.77
2018-02-17T05:22:11.400Z,-2.69
2018-02-17T05:24:04.264Z,-2.73
2018-02-17T05:25:04.146Z,-2.73
2018-02-17T05:26:57.058Z,-2.69
2018-02-17T05:27:56.909Z,-2.74
2018-02-17T05:29:49.777Z,-2.76
2018-02-17T05:30:49.645Z,-2.67
2018-02-17T05:32:42.500Z,-2.82
2018-02-17T05:33:42.413Z,-2.85
2018-02-17T05:35:35.272Z,-2.84
2018-02-17T05:36:35.155Z,-2.85
2018-02-17T05:38:27.996Z,-2.80
2018-02-17T05:39:27.898Z,-2.82
2018-02-17T05:41:20.756Z,-2.72
2018-02-17T05:42:20.718Z,-2.77
2018-02-17T05:44:13.495Z,-2.72
2018-02-17T05:45:13.395Z,-2.74
2018-02-17T05:47:06.258Z,-2.80
2018-02-17T05:48:06.149Z,-2.77
2018-02-17T05:49:58.998Z,-2.94
2018-02-17T05:50:58.898Z,-2.91
2018-02-17T05:52:52.278Z,-2.91
2018-02-17T05:53:52.153Z,-2.94
2018-02-17T05:55:45.533Z,-2.88
2018-02-17T05:56:45.418Z,-2.90
2018-02-17T05:58:38.262Z,-2.82
2018-02-17T05:59:38.166Z,-2.82
2018-02-17T06:01:31.550Z,-2.84
2018-02-17T06:02:31.422Z,-2.90
2018-02-17T06:04:24.379Z,-2.82
2018-02-17T06:05:24.281Z,-2.84
2018-02-17T06:07:17.141Z,-2.84
2018-02-17T06:08:17.041Z,-2.87
2018-02-17T06:10:09.890Z,-2.85
2018-02-17T06:11:09.778Z,-2.90
2018-02-17T06:13:02.643Z,-2.94
2018-02-17T06:14:02.517Z,-2.90
2018-02-17T06:15:55.378Z,-2.91
2018-02-17T06:16:55.281Z,-2.94
2018-02-17T06:18:48.143Z,-2.98
2018-02-17T06:19:48.013Z,-2.90
2018-02-17T06:21:40.877Z,-2.87
2018-02-17T06:22:40.770Z,-2.97
2018-02-17T06:24:33.634Z,-2.97
2018-02-17T06:25:33.520Z,-2.88
2018-02-17T06:27:26.377Z,-2.85
2018-02-17T06:28:26.264Z,-2.91
2018-02-17T06:30:19.353Z,-2.84
2018-02-17T06:31:19.222Z,-2.79
2018-02-17T06:33:12.090Z,-2.79
2018-02-17T06:34:11.965Z,-2.84
2018-02-17T06:36:04.855Z,-2.79
2018-02-17T06:37:04.716Z,-2.73
2018-02-17T06:38:57.590Z,-2.69
2018-02-17T06:39:57.485Z,-2.73
2018-02-17T06:41:50.378Z,-2.74
2018-02-17T06:42:50.222Z,-2.69
2018-02-17T06:44:43.068Z,-2.70
2018-02-17T06:45:42.974Z,-2.69
2018-02-17T06:47:37.370Z,-2.67
2018-02-17T06:48:37.333Z,-2.69
2018-02-17T06:50:30.130Z,-2.69
2018-02-17T06:51:30.008Z,-2.72
2018-02-17T06:53:22.875Z,-2.61
2018-02-17T06:54:22.760Z,-2.59
2018-02-17T06:56:15.626Z,-2.51
2018-02-17T06:57:15.502Z,-2.48
2018-02-17T06:59:08.390Z,-2.49
2018-02-17T07:00:08.248Z,-2.64
2018-02-17T07:02:01.109Z,-2.49
2018-02-17T07:03:01.019Z,-2.45
2018-02-17T07:04:53.880Z,-2.40
2018-02-17T07:05:53.754Z,-2.40
2018-02-17T07:07:46.611Z,-2.46
2018-02-17T07:08:46.498Z,-2.38
2018-02-17T07:10:39.398Z,-2.41
2018-02-17T07:11:39.253Z,-2.33
2018-02-17T07:13:32.102Z,-2.38
2018-02-17T07:14:32.003Z,-2.24
2018-02-17T07:16:24.891Z,-2.29
2018-02-17T07:17:24.752Z,-2.26
2018-02-17T07:19:17.599Z,-2.14
2018-02-17T07:20:17.494Z,-2.11
2018-02-17T07:22:10.368Z,-2.15
2018-02-17T07:23:10.253Z,-2.04
2018-02-17T07:25:03.106Z,-2.01
2018-02-17T07:26:03.001Z,-2.03
2018-02-17T07:27:55.874Z,-1.88
2018-02-17T07:28:55.742Z,-1.88
2018-02-17T07:30:48.597Z,-1.79
2018-02-17T07:31:48.522Z,-1.80
2018-02-17T07:33:41.367Z,-1.83
2018-02-17T07:34:41.264Z,-1.86
2018-02-17T07:36:34.128Z,-1.69
2018-02-17T07:37:34.003Z,-1.73
2018-02-17T07:39:26.881Z,-1.64
2018-02-17T07:40:26.756Z,-1.64
2018-02-17T07:42:19.615Z,-1.61
2018-02-17T07:43:19.502Z,-1.55
2018-02-17T07:45:12.445Z,-1.55
2018-02-17T07:46:12.737Z,-1.44
2018-02-17T07:48:05.112Z,-1.46
2018-02-17T07:49:04.999Z,-1.54
2018-02-17T07:50:57.855Z,-1.43
2018-02-17T07:51:57.747Z,-1.34
2018-02-17T07:53:50.626Z,-1.36
2018-02-17T07:54:50.525Z,-1.22
2018-02-17T07:56:43.354Z,-1.18
2018-02-17T07:57:43.260Z,-1.10
2018-02-17T07:59:36.112Z,-1.04
2018-02-17T08:00:35.995Z,-1.04
2018-02-17T08:02:28.861Z,-0.90
2018-02-17T08:03:28.741Z,-0.82
2018-02-17T08:05:21.627Z,-0.76
2018-02-17T08:06:21.498Z,-0.79
2018-02-17T08:08:14.346Z,-0.70
2018-02-17T08:09:14.252Z,-0.60
2018-02-17T08:11:07.111Z,-0.57
2018-02-17T08:12:06.989Z,-0.55
2018-02-17T08:13:59.852Z,-0.46
2018-02-17T08:14:59.744Z,-0.40
2018-02-17T08:16:52.620Z,-0.35
2018-02-17T08:17:52.494Z,-0.24
2018-02-17T08:19:50.366Z,-0.21
2018-02-17T08:20:50.264Z,-0.17
2018-02-17T08:22:59.609Z,-0.13
2018-02-17T08:23:59.200Z,-0.01
2018-02-17T08:25:57.063Z,0.11
2018-02-17T08:26:56.956Z,0.15
2018-02-17T08:28:50.343Z,0.12
2018-02-17T08:29:50.214Z,0.17
2018-02-17T08:31:43.064Z,0.29
2018-02-17T08:32:42.965Z,0.25
2018-02-17T08:34:35.829Z,0.32
2018-02-17T08:35:35.717Z,0.48
2018-02-17T08:37:28.574Z,0.50
2018-02-17T08:38:28.463Z,0.60
2018-02-17T08:40:21.331Z,0.67
2018-02-17T08:41:21.219Z,0.69
2018-02-17T08:43:14.592Z,0.73
2018-02-17T08:44:14.503Z,0.72
2018-02-17T08:46:07.365Z,0.76
2018-02-17T08:47:07.239Z,0.82
2018-02-17T08:49:00.111Z,0.84
2018-02-17T08:49:59.991Z,0.96
2018-02-17T08:51:52.880Z,0.91
2018-02-17T08:52:52.724Z,0.90
2018-02-17T08:54:46.623Z,0.99
2018-02-17T08:55:46.499Z,1.05
2018-02-17T08:57:39.430Z,0.98
2018-02-17T08:58:39.289Z,1.06
2018-02-17T09:00:32.117Z,1.10
2018-02-17T09:01:31.998Z,1.13
2018-02-17T09:03:25.382Z,1.16
2018-02-17T09:04:25.263Z,1.26
2018-02-17T09:06:18.115Z,1.27
2018-02-17T09:07:18.008Z,1.35
2018-02-17T09:09:10.878Z,1.45
2018-02-17T09:10:10.759Z,1.48
2018-02-17T09:12:04.130Z,1.62
2018-02-17T09:13:04.038Z,1.77
2018-02-17T09:14:56.912Z,1.77
2018-02-17T09:15:56.771Z,1.95
2018-02-17T09:17:49.622Z,2.00
2018-02-17T09:18:49.522Z,2.03
2018-02-17T09:20:42.487Z,2.04
2018-02-17T09:21:43.396Z,2.06
2018-02-17T09:23:35.116Z,2.06
2018-02-17T09:24:35.014Z,2.06
2018-02-17T09:26:27.896Z,2.21
2018-02-17T09:27:27.810Z,2.22
2018-02-17T09:29:20.620Z,2.39
2018-02-17T09:30:20.525Z,2.42
2018-02-17T09:32:13.392Z,2.54
2018-02-17T09:33:13.274Z,2.54
2018-02-17T09:35:06.121Z,2.68
2018-02-17T09:36:06.023Z,2.63
2018-02-17T09:37:58.922Z,2.76
2018-02-17T09:38:58.777Z,2.73
2018-02-17T09:40:52.152Z,2.78
2018-02-17T09:41:52.055Z,2.79
2018-02-17T09:43:44.927Z,2.82
2018-02-17T09:44:44.844Z,2.93
2018-02-17T09:46:37.636Z,2.96
2018-02-17T09:47:37.537Z,3.07
2018-02-17T09:49:30.397Z,3.07
2018-02-17T09:50:30.288Z,3.09
2018-02-17T09:52:23.128Z,3.02
2018-02-17T09:53:23.042Z,3.15
2018-02-17T09:55:15.890Z,3.18
2018-02-17T09:56:15.792Z,3.30
2018-02-17T09:58:08.668Z,3.41
2018-02-17T09:59:08.544Z,3.37
2018-02-17T10:01:01.418Z,3.44
2018-02-17T10:02:01.284Z,3.37
2018-02-17T10:03:54.157Z,3.48
2018-02-17T10:04:54.038Z,3.51
2018-02-17T10:06:46.812Z,3.56
2018-02-17T10:07:46.689Z,3.55
2018-02-17T10:09:40.966Z,3.66
2018-02-17T10:10:40.881Z,3.70
2018-02-17T10:12:33.775Z,3.78
2018-02-17T10:13:33.621Z,3.70
2018-02-17T10:15:26.470Z,3.84
2018-02-17T10:16:26.360Z,3.78
2018-02-17T10:18:19.443Z,3.90
2018-02-17T10:19:19.314Z,3.92
2018-02-17T10:21:12.168Z,4.08
2018-02-17T10:22:12.071Z,4.03
2018-02-17T10:24:04.928Z,4.05
2018-02-17T10:25:04.813Z,4.03
2018-02-17T10:26:57.680Z,4.13
2018-02-17T10:27:57.571Z,4.06
2018-02-17T10:29:50.915Z,4.03
2018-02-17T10:30:50.317Z,4.05
2018-02-17T10:32:43.616Z,4.16
2018-02-17T10:33:43.470Z,4.23
2018-02-17T10:35:36.891Z,4.24
2018-02-17T10:36:36.783Z,4.26
2018-02-17T10:38:29.590Z,4.35
2018-02-17T10:39:29.495Z,4.30
2018-02-17T10:41:22.363Z,4.36
2018-02-17T10:42:22.235Z,4.28
2018-02-17T10:44:15.084Z,4.51
2018-02-17T10:45:14.987Z,4.41
2018-02-17T10:47:07.780Z,4.49
2018-02-17T10:48:07.659Z,4.43
2018-02-17T10:50:00.427Z,4.46
2018-02-17T10:51:00.281Z,4.46
2018-02-17T10:52:53.047Z,4.59
2018-02-17T10:53:53.078Z,4.59
2018-02-17T10:55:45.691Z,4.61
2018-02-17T10:56:45.582Z,4.59
2018-02-17T10:58:38.367Z,4.60
2018-02-17T10:59:38.235Z,4.60
2018-02-17T11:01:31.066Z,4.67
2018-02-17T11:02:30.879Z,4.64
2018-02-17T11:04:23.650Z,4.75
2018-02-17T11:05:23.517Z,4.77
2018-02-17T11:07:16.269Z,4.82
2018-02-17T11:08:16.180Z,4.85
2018-02-17T11:10:09.044Z,4.85
2018-02-17T11:11:08.821Z,4.85
2018-02-17T11:13:01.701Z,4.75
2018-02-17T11:14:01.570Z,4.74
2018-02-17T11:15:54.382Z,4.79
2018-02-17T11:16:54.225Z,4.79
2018-02-17T11:18:47.467Z,4.78
2018-02-17T11:19:47.388Z,4.79
2018-02-17T11:21:40.169Z,4.79
2018-02-17T11:22:40.023Z,4.74
2018-02-17T11:24:32.770Z,4.64
2018-02-17T11:25:32.663Z,4.66
2018-02-17T11:27:25.423Z,4.78
2018-02-17T11:28:25.311Z,4.75
2018-02-17T11:30:18.055Z,4.88
2018-02-17T11:31:17.958Z,4.79
2018-02-17T11:33:10.758Z,4.78
2018-02-17T11:34:10.609Z,4.94
2018-02-17T11:36:03.358Z,4.83
2018-02-17T11:37:03.254Z,4.85
2018-02-17T11:38:56.044Z,4.83
2018-02-17T11:39:55.910Z,4.79
2018-02-17T11:41:48.749Z,4.72
2018-02-17T11:42:48.671Z,4.79
2018-02-17T11:44:41.610Z,4.75
2018-02-17T11:45:41.555Z,4.75
2018-02-17T11:47:34.903Z,4.60
2018-02-17T11:48:34.251Z,4.48
2018-02-17T11:50:27.040Z,4.57
2018-02-17T11:51:26.901Z,4.48
2018-02-17T11:53:19.772Z,4.31
2018-02-17T11:54:19.650Z,4.26
2018-02-17T11:56:12.544Z,4.35
2018-02-17T11:57:12.482Z,4.42
2018-02-17T11:59:05.765Z,4.60
2018-02-17T12:00:05.676Z,4.60
2018-02-17T12:01:59.095Z,4.60
2018-02-17T12:02:58.406Z,4.61
2018-02-17T12:04:51.765Z,4.56
2018-02-17T12:05:51.667Z,4.63
2018-02-17T12:07:44.540Z,4.61
2018-02-17T12:08:44.411Z,4.64
2018-02-17T12:10:37.398Z,4.48
2018-02-17T12:11:37.212Z,4.46
2018-02-17T12:13:30.666Z,4.23
2018-02-17T12:14:30.538Z,4.27
2018-02-17T12:16:23.393Z,4.35
2018-02-17T12:17:23.283Z,4.39
2018-02-17T12:19:16.135Z,4.39
2018-02-17T12:20:16.028Z,4.38
2018-02-17T12:22:08.778Z,4.31
2018-02-17T12:23:08.675Z,4.43
2018-02-17T12:25:01.553Z,4.31
2018-02-17T12:26:01.420Z,4.28
2018-02-17T12:27:54.274Z,4.36
2018-02-17T12:28:54.187Z,4.35
2018-02-17T12:30:47.034Z,4.30
2018-02-17T12:31:46.917Z,4.18
2018-02-17T12:33:40.907Z,4.13
2018-02-17T12:34:40.807Z,4.24
2018-02-17T12:36:33.671Z,4.42
2018-02-17T12:37:33.545Z,4.31
2018-02-17T12:39:26.401Z,4.45
2018-02-17T12:40:26.300Z,4.49
2018-02-17T12:42:19.166Z,4.61
2018-02-17T12:43:19.049Z,4.67
2018-02-17T12:45:11.900Z,4.78
2018-02-17T12:46:11.797Z,4.85
2018-02-17T12:48:05.192Z,4.93
2018-02-17T12:49:05.064Z,5.03
2018-02-17T12:50:57.960Z,4.97
2018-02-17T12:51:57.816Z,5.01
2018-02-17T12:53:50.675Z,4.83
2018-02-17T12:54:50.558Z,4.83
2018-02-17T12:56:43.404Z,4.66
2018-02-17T12:57:43.304Z,4.61
2018-02-17T12:59:36.192Z,4.72
2018-02-17T13:00:36.064Z,4.83
2018-02-17T13:02:28.832Z,4.98
2018-02-17T13:03:28.709Z,5.01
2018-02-17T13:05:21.584Z,5.18
2018-02-17T13:06:21.463Z,5.22
2018-02-17T13:08:14.410Z,5.19
2018-02-17T13:09:14.309Z,5.03
2018-02-17T13:11:07.233Z,5.01
2018-02-17T13:12:07.066Z,4.79
2018-02-17T13:13:59.938Z,4.71
2018-02-17T13:14:59.804Z,4.72
2018-02-17T13:16:52.729Z,5.00
2018-02-17T13:17:52.556Z,5.03
2018-02-17T13:19:45.441Z,5.18
2018-02-17T13:20:45.306Z,5.03
2018-02-17T13:22:38.182Z,4.88
2018-02-17T13:23:38.059Z,4.85
2018-02-17T13:25:30.948Z,4.91
2018-02-17T13:26:30.815Z,4.82
2018-02-17T13:28:23.678Z,4.91
2018-02-17T13:29:23.589Z,4.94
2018-02-17T13:31:16.402Z,4.79
2018-02-17T13:32:16.304Z,4.74
2018-02-17T13:34:09.083Z,4.63
2018-02-17T13:35:08.952Z,4.59
2018-02-17T13:37:01.813Z,4.57
2018-02-17T13:38:01.711Z,4.57
2018-02-17T13:39:54.679Z,4.38
2018-02-17T13:40:54.557Z,4.43
2018-02-17T13:42:47.425Z,4.43
2018-02-17T13:43:47.312Z,4.42
2018-02-17T13:45:40.888Z,4.61
2018-02-17T13:46:40.811Z,4.72
2018-02-17T13:48:33.743Z,4.78
2018-02-17T13:49:33.616Z,4.61
2018-02-17T13:51:26.486Z,4.46
2018-02-17T13:52:26.378Z,4.41
2018-02-17T13:54:19.339Z,4.38
2018-02-17T13:55:19.233Z,4.42
2018-02-17T13:57:12.123Z,4.49
2018-02-17T13:58:12.064Z,4.42
2018-02-17T14:00:04.825Z,4.43
2018-02-17T14:01:04.726Z,4.53
2018-02-17T14:02:57.582Z,4.54
2018-02-17T14:03:57.476Z,4.53
2018-02-17T14:05:50.314Z,4.60
2018-02-17T14:06:50.234Z,4.72
2018-02-17T14:08:43.095Z,4.74
2018-02-17T14:09:42.983Z,4.77
2018-02-17T14:11:35.855Z,4.79
2018-02-17T14:12:35.733Z,4.85
2018-02-17T14:14:28.585Z,4.82
2018-02-17T14:15:28.466Z,4.82
2018-02-17T14:17:21.320Z,4.79
2018-02-17T14:18:21.216Z,4.78
2018-02-17T14:20:13.999Z,4.77
2018-02-17T14:21:13.871Z,4.77
2018-02-17T14:23:06.731Z,4.57
2018-02-17T14:24:06.613Z,4.48
2018-02-17T14:25:59.498Z,4.51
2018-02-17T14:26:59.373Z,4.28
2018-02-17T14:28:52.214Z,4.24
2018-02-17T14:29:52.107Z,4.16
2018-02-17T14:31:45.513Z,4.16
2018-02-17T14:32:45.379Z,4.18
2018-02-17T14:34:38.710Z,4.17
2018-02-17T14:35:38.163Z,4.06
2018-02-17T14:37:31.001Z,4.13
2018-02-17T14:38:30.877Z,4.10
2018-02-17T14:40:23.752Z,4.16
2018-02-17T14:41:23.636Z,4.08
2018-02-17T14:43:16.502Z,4.28
2018-02-17T14:44:16.374Z,4.34
2018-02-17T14:46:09.722Z,4.41
2018-02-17T14:47:09.069Z,4.51
2018-02-17T14:49:01.910Z,4.51
2018-02-17T14:50:01.851Z,4.61
2018-02-17T14:51:54.655Z,4.53
2018-02-17T14:52:54.420Z,4.30
2018-02-17T14:54:47.192Z,4.18
2018-02-17T14:55:47.073Z,4.09
2018-02-17T14:57:39.840Z,3.98
2018-02-17T14:58:39.722Z,3.91
2018-02-17T15:00:32.621Z,3.84
2018-02-17T15:01:32.468Z,3.87
2018-02-17T15:03:25.723Z,3.87
2018-02-17T15:04:25.624Z,3.99
2018-02-17T15:06:18.392Z,3.90
2018-02-17T15:07:18.272Z,3.84
2018-02-17T15:09:11.022Z,3.74
2018-02-17T15:10:10.922Z,3.80
2018-02-17T15:12:03.702Z,3.81
2018-02-17T15:13:03.607Z,3.70
2018-02-17T15:14:56.316Z,3.76
2018-02-17T15:15:56.209Z,3.87
2018-02-17T15:17:49.015Z,3.78
2018-02-17T15:18:48.874Z,3.84
2018-02-17T15:20:42.169Z,3.70
2018-02-17T15:21:42.052Z,3.80
2018-02-17T15:23:34.787Z,3.70
2018-02-17T15:24:34.674Z,3.76
2018-02-17T15:26:27.412Z,3.73
2018-02-17T15:27:27.313Z,3.69
2018-02-17T15:29:20.090Z,3.80
2018-02-17T15:30:19.965Z,3.66
2018-02-17T15:32:12.715Z,3.73
2018-02-17T15:33:12.610Z,3.70
2018-02-17T15:35:05.385Z,3.69
2018-02-17T15:36:05.274Z,3.70
2018-02-17T15:37:58.029Z,3.64
2018-02-17T15:38:57.968Z,3.63
2018-02-17T15:40:50.672Z,3.66
2018-02-17T15:41:50.561Z,3.59
2018-02-17T15:43:43.400Z,3.46
2018-02-17T15:44:43.299Z,3.37
2018-02-17T15:46:36.106Z,3.23
2018-02-17T15:47:35.977Z,3.23
2018-02-17T15:49:28.720Z,3.27
2018-02-17T15:50:28.612Z,3.17
2018-02-17T15:52:21.359Z,3.23
2018-02-17T15:53:21.235Z,3.14
2018-02-17T15:55:14.084Z,3.02
2018-02-17T15:56:14.032Z,3.07
2018-02-17T15:58:06.776Z,3.11
2018-02-17T15:59:06.638Z,3.14
2018-02-17T16:00:59.382Z,3.07
2018-02-17T16:01:59.281Z,3.12
2018-02-17T16:03:52.116Z,3.11
2018-02-17T16:04:51.930Z,3.07
2018-02-17T16:06:44.692Z,3.12
2018-02-17T16:07:44.724Z,3.17
2018-02-17T16:09:37.334Z,3.07
2018-02-17T16:10:37.219Z,3.04
2018-02-17T16:12:29.977Z,3.14
2018-02-17T16:13:29.874Z,3.08
2018-02-17T16:15:23.140Z,3.09
2018-02-17T16:16:23.034Z,3.11
2018-02-17T16:18:15.776Z,3.11
2018-02-17T16:19:15.686Z,3.07
2018-02-17T16:21:08.461Z,2.99
2018-02-17T16:22:08.340Z,3.09
2018-02-17T16:24:01.079Z,3.07
2018-02-17T16:25:00.977Z,3.09
2018-02-17T16:26:53.782Z,3.08
2018-02-17T16:27:53.653Z,3.11
2018-02-17T16:29:46.359Z,3.04
2018-02-17T16:30:46.283Z,3.08
2018-02-17T16:32:39.042Z,3.07
2018-02-17T16:33:38.918Z,3.11
2018-02-17T16:35:31.668Z,3.05
2018-02-17T16:36:31.568Z,3.09
2018-02-17T16:38:24.442Z,3.08
2018-02-17T16:39:24.653Z,3.08
2018-02-17T16:41:17.661Z,2.94
2018-02-17T16:42:17.479Z,3.00
2018-02-17T16:44:10.287Z,2.91
2018-02-17T16:45:10.120Z,2.90
2018-02-17T16:47:02.883Z,2.81
2018-02-17T16:48:02.793Z,2.82
2018-02-17T16:49:55.547Z,2.82
2018-02-17T16:50:55.404Z,2.78
2018-02-17T16:52:48.163Z,2.81
2018-02-17T16:53:48.070Z,2.89
2018-02-17T16:55:40.832Z,2.82
2018-02-17T16:56:40.701Z,2.84
2018-02-17T16:58:33.994Z,2.82
2018-02-17T16:59:33.862Z,2.86
2018-02-17T17:01:26.656Z,2.78
2018-02-17T17:02:26.517Z,2.86
2018-02-17T17:04:19.290Z,2.84
2018-02-17T17:05:19.153Z,2.84
2018-02-17T17:07:11.921Z,2.81
2018-02-17T17:08:11.806Z,2.87
2018-02-17T17:10:04.555Z,2.81
2018-02-17T17:11:04.450Z,2.78
2018-02-17T17:12:57.230Z,2.90
2018-02-17T17:13:57.097Z,2.81
2018-02-17T17:15:49.860Z,2.84
2018-02-17T17:16:49.749Z,2.81
2018-02-17T17:18:42.519Z,2.81
2018-02-17T17:19:42.438Z,2.81
2018-02-17T17:21:35.148Z,2.82
2018-02-17T17:22:35.038Z,2.84
2018-02-17T17:24:27.794Z,2.82
2018-02-17T17:25:27.681Z,2.90
2018-02-17T17:27:20.966Z,2.91
2018-02-17T17:28:20.849Z,2.79
2018-02-17T17:30:14.170Z,2.82
2018-02-17T17:31:14.021Z,2.86
2018-02-17T17:33:06.762Z,2.78
2018-02-17T17:34:06.652Z,2.82
2018-02-17T17:35:59.415Z,2.71
2018-02-17T17:36:59.301Z,2.75
2018-02-17T17:38:52.070Z,2.81
2018-02-17T17:39:51.958Z,2.72
2018-02-17T17:41:44.751Z,2.65
2018-02-17T17:42:44.605Z,2.76
2018-02-17T17:44:37.354Z,2.63
2018-02-17T17:45:37.240Z,2.71
2018-02-17T17:47:30.523Z,2.68
2018-02-17T17:48:30.415Z,2.68
2018-02-17T17:50:23.260Z,2.78
2018-02-17T17:51:23.157Z,2.66
2018-02-17T17:53:15.987Z,2.69
2018-02-17T17:54:15.795Z,2.65
2018-02-17T17:56:09.058Z,2.68
2018-02-17T17:57:08.964Z,2.61
2018-02-17T17:59:01.842Z,2.63
2018-02-17T18:00:01.601Z,2.68
2018-02-17T18:01:54.355Z,2.63
2018-02-17T18:02:54.252Z,2.66
2018-02-17T18:04:47.024Z,2.60
2018-02-17T18:05:46.918Z,2.63
2018-02-17T18:07:39.748Z,2.65
2018-02-17T18:08:39.651Z,2.69
2018-02-17T18:10:32.510Z,2.73
2018-02-17T18:11:32.533Z,2.60
2018-02-17T18:13:25.299Z,2.75
2018-02-17T18:14:25.154Z,2.68
2018-02-17T18:16:17.927Z,2.68
2018-02-17T18:17:17.801Z,2.65
2018-02-17T18:19:10.636Z,2.60
2018-02-17T18:20:10.563Z,2.63
2018-02-17T18:22:03.322Z,2.66
2018-02-17T18:23:03.205Z,2.61
2018-02-17T18:24:56.456Z,2.58
2018-02-17T18:25:56.373Z,2.61
2018-02-17T18:27:49.133Z,2.61
2018-02-17T18:28:49.001Z,2.57
2018-02-17T18:30:41.750Z,2.60
2018-02-17T18:31:41.643Z,2.65
2018-02-17T18:33:34.413Z,2.66
2018-02-17T18:34:34.310Z,2.73
2018-02-17T18:36:27.076Z,2.75
2018-02-17T18:37:26.958Z,2.75
2018-02-17T18:39:19.724Z,2.76
2018-02-17T18:40:19.591Z,2.66
2018-02-17T18:42:12.378Z,2.66
2018-02-17T18:43:12.232Z,2.61
2018-02-17T18:45:06.575Z,2.53
2018-02-17T18:46:06.545Z,2.50
2018-02-17T18:47:59.172Z,2.48
2018-02-17T18:48:59.070Z,2.40
2018-02-17T18:50:51.870Z,2.43
2018-02-17T18:51:51.713Z,2.42
2018-02-17T18:53:44.973Z,2.42
2018-02-17T18:54:44.878Z,2.45
2018-02-17T18:56:37.641Z,2.39